sensor_id;sensor_type;location;lat;lon;timestamp;P1;durP1;ratioP1;P2;durP2;ratioP2
9783;SDS011;4931;44.874;-1.092;2023-04-01T00:01:19;64.25;;;8.93;;
9783;SDS011;4931;44.874;-1.092;2023-04-01T00:03:44;72.10;;;9.45;;
9783;SDS011;4931;44.874;-1.092;2023-04-01T00:06:13;72.18;;;8.63;;
9783;SDS011;4931;44.874;-1.092;2023-04-01T00:08:41;59.15;;;9.63;;
9783;SDS011;4931;44.874;-1.092;2023-04-01T00:11:06;68.88;;;9.25;;
9783;SDS011;4931;44.874;-1.092;2023-04-01T00:13:32;65.60;;;8.60;;
9783;SDS011;4931;44.874;-1.092;2023-04-01T00:15:57;51.50;;;7.80;;
9783;SDS011;4931;44.874;-1.092;2023-04-01T00:18:23;45.22;;;6.70;;
9783;SDS011;4931;44.874;-1.092;2023-04-01T00:20:50;51.15;;;7.75;;
9783;SDS011;4931;44.874;-1.092;2023-04-01T00:23:18;44.80;;;6.82;;
9783;SDS011;4931;44.874;-1.092;2023-04-01T00:25:44;48.92;;;6.38;;
9783;SDS011;4931;44.874;-1.092;2023-04-01T00:28:13;44.58;;;6.85;;
9783;SDS011;4931;44.874;-1.092;2023-04-01T00:30:40;56.78;;;8.25;;
9783;SDS011;4931;44.874;-1.092;2023-04-01T00:33:06;49.88;;;7.78;;
9783;SDS011;4931;44.874;-1.092;2023-04-01T00:35:32;49.22;;;7.00;;
9783;SDS011;4931;44.874;-1.092;2023-04-01T00:37:57;55.95;;;8.80;;
9783;SDS011;4931;44.874;-1.092;2023-04-01T00:40:28;58.63;;;7.65;;
9783;SDS011;4931;44.874;-1.092;2023-04-01T00:42:54;55.80;;;9.10;;
9783;SDS011;4931;44.874;-1.092;2023-04-01T00:45:31;61.47;;;8.77;;
9783;SDS011;4931;44.874;-1.092;2023-04-01T00:48:01;48.58;;;7.65;;
9783;SDS011;4931;44.874;-1.092;2023-04-01T00:50:50;58.03;;;8.05;;
9783;SDS011;4931;44.874;-1.092;2023-04-01T00:53:20;54.40;;;8.27;;
9783;SDS011;4931;44.874;-1.092;2023-04-01T00:55:49;63.58;;;8.65;;
9783;SDS011;4931;44.874;-1.092;2023-04-01T00:58:21;51.00;;;7.63;;
9783;SDS011;4931;44.874;-1.092;2023-04-01T01:00:49;58.15;;;8.48;;
9783;SDS011;4931;44.874;-1.092;2023-04-01T01:03:16;55.08;;;7.65;;
9783;SDS011;4931;44.874;-1.092;2023-04-01T01:08:47;60.22;;;8.32;;
9783;SDS011;4931;44.874;-1.092;2023-04-01T01:11:29;53.75;;;7.80;;
9783;SDS011;4931;44.874;-1.092;2023-04-01T01:16:58;48.30;;;6.43;;
9783;SDS011;4931;44.874;-1.092;2023-04-01T01:22:23;53.90;;;6.30;;
9783;SDS011;4931;44.874;-1.092;2023-04-01T01:28:13;49.03;;;6.38;;
9783;SDS011;4931;44.874;-1.092;2023-04-01T01:36:07;53.67;;;7.22;;
9783;SDS011;4931;44.874;-1.092;2023-04-01T01:38:37;54.97;;;8.05;;
9783;SDS011;4931;44.874;-1.092;2023-04-01T01:41:04;46.92;;;7.30;;
9783;SDS011;4931;44.874;-1.092;2023-04-01T01:43:36;44.38;;;6.15;;
9783;SDS011;4931;44.874;-1.092;2023-04-01T01:46:10;47.78;;;7.65;;
9783;SDS011;4931;44.874;-1.092;2023-04-01T01:48:38;56.47;;;7.15;;
9783;SDS011;4931;44.874;-1.092;2023-04-01T01:51:07;52.08;;;6.63;;
9783;SDS011;4931;44.874;-1.092;2023-04-01T01:53:32;55.53;;;6.78;;
9783;SDS011;4931;44.874;-1.092;2023-04-01T01:55:58;46.75;;;6.80;;
9783;SDS011;4931;44.874;-1.092;2023-04-01T01:58:34;41.22;;;6.97;;
9783;SDS011;4931;44.874;-1.092;2023-04-01T02:01:27;55.53;;;7.18;;
9783;SDS011;4931;44.874;-1.092;2023-04-01T02:03:55;51.72;;;7.15;;
9783;SDS011;4931;44.874;-1.092;2023-04-01T02:06:23;60.25;;;8.18;;
9783;SDS011;4931;44.874;-1.092;2023-04-01T02:08:55;54.95;;;7.97;;
9783;SDS011;4931;44.874;-1.092;2023-04-01T02:11:28;44.97;;;7.85;;
9783;SDS011;4931;44.874;-1.092;2023-04-01T02:14:10;62.05;;;7.78;;
9783;SDS011;4931;44.874;-1.092;2023-04-01T02:19:10;62.60;;;7.68;;
9783;SDS011;4931;44.874;-1.092;2023-04-01T02:21:38;52.88;;;6.88;;
9783;SDS011;4931;44.874;-1.092;2023-04-01T02:24:08;51.28;;;7.93;;
9783;SDS011;4931;44.874;-1.092;2023-04-01T02:26:36;44.35;;;7.18;;
9783;SDS011;4931;44.874;-1.092;2023-04-01T02:29:02;39.42;;;5.35;;
9783;SDS011;4931;44.874;-1.092;2023-04-01T02:31:30;36.58;;;5.53;;
9783;SDS011;4931;44.874;-1.092;2023-04-01T02:33:57;37.03;;;6.05;;
9783;SDS011;4931;44.874;-1.092;2023-04-01T02:36:22;44.80;;;5.63;;
9783;SDS011;4931;44.874;-1.092;2023-04-01T02:38:48;41.40;;;5.25;;
9783;SDS011;4931;44.874;-1.092;2023-04-01T02:41:16;35.72;;;5.55;;
9783;SDS011;4931;44.874;-1.092;2023-04-01T02:43:42;55.67;;;6.22;;
9783;SDS011;4931;44.874;-1.092;2023-04-01T02:46:07;51.67;;;6.97;;
9783;SDS011;4931;44.874;-1.092;2023-04-01T02:48:33;47.67;;;6.88;;
9783;SDS011;4931;44.874;-1.092;2023-04-01T02:50:58;57.50;;;7.65;;
9783;SDS011;4931;44.874;-1.092;2023-04-01T02:53:24;48.10;;;6.45;;
9783;SDS011;4931;44.874;-1.092;2023-04-01T02:55:49;46.47;;;7.22;;
9783;SDS011;4931;44.874;-1.092;2023-04-01T02:58:17;53.38;;;7.93;;
9783;SDS011;4931;44.874;-1.092;2023-04-01T03:00:42;61.53;;;8.10;;
9783;SDS011;4931;44.874;-1.092;2023-04-01T03:03:08;56.22;;;6.22;;
9783;SDS011;4931;44.874;-1.092;2023-04-01T03:05:34;49.55;;;7.22;;
9783;SDS011;4931;44.874;-1.092;2023-04-01T03:08:00;46.35;;;6.65;;
9783;SDS011;4931;44.874;-1.092;2023-04-01T03:10:26;53.45;;;6.35;;
9783;SDS011;4931;44.874;-1.092;2023-04-01T03:12:52;49.60;;;6.78;;
9783;SDS011;4931;44.874;-1.092;2023-04-01T03:15:17;47.55;;;6.22;;
9783;SDS011;4931;44.874;-1.092;2023-04-01T03:17:43;50.30;;;6.70;;
9783;SDS011;4931;44.874;-1.092;2023-04-01T03:20:09;52.97;;;6.88;;
9783;SDS011;4931;44.874;-1.092;2023-04-01T03:22:36;48.45;;;7.07;;
9783;SDS011;4931;44.874;-1.092;2023-04-01T03:25:03;51.13;;;6.45;;
9783;SDS011;4931;44.874;-1.092;2023-04-01T03:27:29;50.45;;;6.50;;
9783;SDS011;4931;44.874;-1.092;2023-04-01T03:29:54;47.60;;;7.05;;
9783;SDS011;4931;44.874;-1.092;2023-04-01T03:32:20;51.10;;;6.80;;
9783;SDS011;4931;44.874;-1.092;2023-04-01T03:34:45;50.60;;;7.10;;
9783;SDS011;4931;44.874;-1.092;2023-04-01T03:37:11;50.80;;;6.40;;
9783;SDS011;4931;44.874;-1.092;2023-04-01T03:39:37;52.35;;;6.82;;
9783;SDS011;4931;44.874;-1.092;2023-04-01T03:42:02;51.75;;;7.38;;
9783;SDS011;4931;44.874;-1.092;2023-04-01T03:44:31;53.10;;;7.40;;
9783;SDS011;4931;44.874;-1.092;2023-04-01T03:46:58;56.25;;;7.93;;
9783;SDS011;4931;44.874;-1.092;2023-04-01T03:49:23;50.53;;;6.95;;
9783;SDS011;4931;44.874;-1.092;2023-04-01T03:51:49;48.72;;;6.38;;
9783;SDS011;4931;44.874;-1.092;2023-04-01T03:54:14;49.75;;;6.93;;
9783;SDS011;4931;44.874;-1.092;2023-04-01T03:56:40;49.22;;;6.38;;
9783;SDS011;4931;44.874;-1.092;2023-04-01T03:59:07;58.55;;;7.13;;
9783;SDS011;4931;44.874;-1.092;2023-04-01T04:01:33;45.70;;;6.97;;
9783;SDS011;4931;44.874;-1.092;2023-04-01T04:03:59;47.50;;;6.68;;
9783;SDS011;4931;44.874;-1.092;2023-04-01T04:06:25;51.80;;;7.38;;
9783;SDS011;4931;44.874;-1.092;2023-04-01T04:08:52;61.72;;;7.30;;
9783;SDS011;4931;44.874;-1.092;2023-04-01T04:11:18;56.50;;;7.45;;
9783;SDS011;4931;44.874;-1.092;2023-04-01T04:13:45;51.88;;;7.57;;
9783;SDS011;4931;44.874;-1.092;2023-04-01T04:16:12;49.67;;;6.65;;
9783;SDS011;4931;44.874;-1.092;2023-04-01T04:18:39;59.47;;;7.90;;
9783;SDS011;4931;44.874;-1.092;2023-04-01T04:21:04;46.95;;;6.18;;
9783;SDS011;4931;44.874;-1.092;2023-04-01T04:23:30;55.35;;;6.95;;
9783;SDS011;4931;44.874;-1.092;2023-04-01T04:26:05;59.72;;;7.35;;
9783;SDS011;4931;44.874;-1.092;2023-04-01T04:28:32;50.35;;;6.32;;
9783;SDS011;4931;44.874;-1.092;2023-04-01T04:30:58;56.90;;;7.03;;
9783;SDS011;4931;44.874;-1.092;2023-04-01T04:33:25;51.45;;;7.00;;
9783;SDS011;4931;44.874;-1.092;2023-04-01T04:35:51;43.50;;;6.95;;
9783;SDS011;4931;44.874;-1.092;2023-04-01T04:38:20;58.08;;;7.95;;
9783;SDS011;4931;44.874;-1.092;2023-04-01T04:40:45;48.85;;;7.57;;
9783;SDS011;4931;44.874;-1.092;2023-04-01T04:43:11;61.03;;;7.97;;
9783;SDS011;4931;44.874;-1.092;2023-04-01T04:45:38;63.55;;;7.40;;
9783;SDS011;4931;44.874;-1.092;2023-04-01T04:48:04;49.42;;;6.78;;
9783;SDS011;4931;44.874;-1.092;2023-04-01T04:50:30;53.50;;;7.90;;
9783;SDS011;4931;44.874;-1.092;2023-04-01T04:52:56;54.60;;;7.03;;
9783;SDS011;4931;44.874;-1.092;2023-04-01T04:55:21;48.47;;;7.30;;
9783;SDS011;4931;44.874;-1.092;2023-04-01T04:57:47;55.08;;;8.35;;
9783;SDS011;4931;44.874;-1.092;2023-04-01T05:00:12;48.65;;;8.27;;
9783;SDS011;4931;44.874;-1.092;2023-04-01T05:02:38;55.33;;;6.90;;
9783;SDS011;4931;44.874;-1.092;2023-04-01T05:05:04;49.72;;;6.63;;
9783;SDS011;4931;44.874;-1.092;2023-04-01T05:07:30;48.42;;;6.75;;
9783;SDS011;4931;44.874;-1.092;2023-04-01T05:09:56;52.97;;;7.90;;
9783;SDS011;4931;44.874;-1.092;2023-04-01T05:12:21;55.58;;;8.50;;
9783;SDS011;4931;44.874;-1.092;2023-04-01T05:14:47;49.03;;;7.40;;
9783;SDS011;4931;44.874;-1.092;2023-04-01T05:17:12;59.60;;;7.60;;
9783;SDS011;4931;44.874;-1.092;2023-04-01T05:19:38;43.88;;;7.22;;
9783;SDS011;4931;44.874;-1.092;2023-04-01T05:22:04;56.10;;;6.72;;
9783;SDS011;4931;44.874;-1.092;2023-04-01T05:24:30;59.92;;;7.57;;
9783;SDS011;4931;44.874;-1.092;2023-04-01T05:26:56;55.10;;;7.15;;
9783;SDS011;4931;44.874;-1.092;2023-04-01T05:29:22;52.83;;;6.63;;
9783;SDS011;4931;44.874;-1.092;2023-04-01T05:31:48;46.25;;;7.47;;
9783;SDS011;4931;44.874;-1.092;2023-04-01T05:34:14;50.97;;;7.18;;
9783;SDS011;4931;44.874;-1.092;2023-04-01T05:36:40;48.38;;;5.65;;
9783;SDS011;4931;44.874;-1.092;2023-04-01T05:39:07;33.90;;;4.95;;
9783;SDS011;4931;44.874;-1.092;2023-04-01T05:41:36;34.40;;;5.00;;
9783;SDS011;4931;44.874;-1.092;2023-04-01T05:44:03;35.58;;;4.20;;
9783;SDS011;4931;44.874;-1.092;2023-04-01T05:46:29;30.20;;;4.38;;
9783;SDS011;4931;44.874;-1.092;2023-04-01T05:48:55;34.08;;;4.20;;
9783;SDS011;4931;44.874;-1.092;2023-04-01T05:51:21;40.03;;;4.90;;
9783;SDS011;4931;44.874;-1.092;2023-04-01T05:53:47;36.35;;;5.63;;
9783;SDS011;4931;44.874;-1.092;2023-04-01T05:56:12;43.55;;;5.75;;
9783;SDS011;4931;44.874;-1.092;2023-04-01T05:58:38;48.30;;;5.50;;
9783;SDS011;4931;44.874;-1.092;2023-04-01T06:01:05;50.30;;;6.70;;
9783;SDS011;4931;44.874;-1.092;2023-04-01T06:03:32;53.85;;;6.70;;
9783;SDS011;4931;44.874;-1.092;2023-04-01T06:05:58;49.53;;;6.47;;
9783;SDS011;4931;44.874;-1.092;2023-04-01T06:08:26;44.30;;;6.25;;
9783;SDS011;4931;44.874;-1.092;2023-04-01T06:16:45;47.78;;;7.15;;
9783;SDS011;4931;44.874;-1.092;2023-04-01T06:19:51;48.70;;;6.03;;
9783;SDS011;4931;44.874;-1.092;2023-04-01T06:22:49;48.97;;;6.18;;
9783;SDS011;4931;44.874;-1.092;2023-04-01T06:25:32;61.03;;;7.53;;
9783;SDS011;4931;44.874;-1.092;2023-04-01T06:28:04;49.05;;;6.90;;
9783;SDS011;4931;44.874;-1.092;2023-04-01T06:30:54;52.33;;;6.88;;
9783;SDS011;4931;44.874;-1.092;2023-04-01T06:33:53;49.92;;;6.80;;
9783;SDS011;4931;44.874;-1.092;2023-04-01T06:36:46;50.70;;;6.95;;
9783;SDS011;4931;44.874;-1.092;2023-04-01T06:53:18;51.72;;;8.23;;
9783;SDS011;4931;44.874;-1.092;2023-04-01T06:55:57;52.28;;;6.88;;
9783;SDS011;4931;44.874;-1.092;2023-04-01T06:58:37;52.28;;;7.20;;
9783;SDS011;4931;44.874;-1.092;2023-04-01T07:01:08;46.53;;;7.37;;
9783;SDS011;4931;44.874;-1.092;2023-04-01T07:03:48;48.40;;;6.85;;
9783;SDS011;4931;44.874;-1.092;2023-04-01T07:07:01;53.90;;;7.70;;
9783;SDS011;4931;44.874;-1.092;2023-04-01T07:09:11;48.05;;;7.13;;
9783;SDS011;4931;44.874;-1.092;2023-04-01T07:11:41;54.05;;;8.23;;
9783;SDS011;4931;44.874;-1.092;2023-04-01T07:16:37;45.53;;;7.03;;
9783;SDS011;4931;44.874;-1.092;2023-04-01T07:19:12;48.08;;;6.75;;
9783;SDS011;4931;44.874;-1.092;2023-04-01T07:22:00;43.00;;;5.85;;
9783;SDS011;4931;44.874;-1.092;2023-04-01T07:24:36;34.85;;;6.10;;
9783;SDS011;4931;44.874;-1.092;2023-04-01T07:27:05;39.42;;;5.93;;
9783;SDS011;4931;44.874;-1.092;2023-04-01T07:29:35;50.40;;;6.82;;
9783;SDS011;4931;44.874;-1.092;2023-04-01T07:37:06;49.15;;;6.40;;
9783;SDS011;4931;44.874;-1.092;2023-04-01T07:50:32;39.58;;;5.70;;
9783;SDS011;4931;44.874;-1.092;2023-04-01T07:53:38;34.92;;;5.38;;
9783;SDS011;4931;44.874;-1.092;2023-04-01T07:56:17;40.17;;;5.45;;
9783;SDS011;4931;44.874;-1.092;2023-04-01T08:14:48;43.22;;;5.80;;
9783;SDS011;4931;44.874;-1.092;2023-04-01T08:22:26;33.92;;;5.28;;
9783;SDS011;4931;44.874;-1.092;2023-04-01T08:25:05;42.42;;;5.80;;
9783;SDS011;4931;44.874;-1.092;2023-04-01T08:27:39;25.63;;;4.20;;
9783;SDS011;4931;44.874;-1.092;2023-04-01T08:30:18;44.08;;;5.70;;
9783;SDS011;4931;44.874;-1.092;2023-04-01T08:32:52;35.88;;;5.97;;
9783;SDS011;4931;44.874;-1.092;2023-04-01T08:35:24;29.80;;;5.45;;
9783;SDS011;4931;44.874;-1.092;2023-04-01T08:37:54;35.55;;;5.65;;
9783;SDS011;4931;44.874;-1.092;2023-04-01T08:43:34;38.47;;;4.90;;
9783;SDS011;4931;44.874;-1.092;2023-04-01T08:49:11;34.92;;;5.57;;
9783;SDS011;4931;44.874;-1.092;2023-04-01T08:57:58;46.15;;;6.90;;
9783;SDS011;4931;44.874;-1.092;2023-04-01T09:06:13;45.22;;;6.18;;
9783;SDS011;4931;44.874;-1.092;2023-04-01T09:19:45;30.15;;;4.75;;
9783;SDS011;4931;44.874;-1.092;2023-04-01T09:28:13;41.67;;;4.80;;
9783;SDS011;4931;44.874;-1.092;2023-04-01T09:45:01;30.60;;;5.40;;
9783;SDS011;4931;44.874;-1.092;2023-04-01T09:47:43;32.88;;;5.00;;
9783;SDS011;4931;44.874;-1.092;2023-04-01T09:50:19;37.33;;;4.82;;
9783;SDS011;4931;44.874;-1.092;2023-04-01T10:28:36;36.33;;;4.60;;
9783;SDS011;4931;44.874;-1.092;2023-04-01T10:56:51;28.75;;;4.45;;
9783;SDS011;4931;44.874;-1.092;2023-04-01T10:59:31;38.08;;;4.53;;
9783;SDS011;4931;44.874;-1.092;2023-04-01T11:05:48;43.63;;;6.13;;
9783;SDS011;4931;44.874;-1.092;2023-04-01T11:33:50;20.13;;;2.80;;
9783;SDS011;4931;44.874;-1.092;2023-04-01T11:44:36;25.50;;;3.28;;
9783;SDS011;4931;44.874;-1.092;2023-04-01T11:50:26;24.65;;;3.85;;
9783;SDS011;4931;44.874;-1.092;2023-04-01T11:52:58;28.02;;;4.53;;
9783;SDS011;4931;44.874;-1.092;2023-04-01T12:09:53;15.55;;;2.67;;
9783;SDS011;4931;44.874;-1.092;2023-04-01T12:12:36;15.73;;;2.47;;
9783;SDS011;4931;44.874;-1.092;2023-04-01T12:15:22;12.25;;;2.10;;
9783;SDS011;4931;44.874;-1.092;2023-04-01T12:18:03;6.05;;;1.10;;
9783;SDS011;4931;44.874;-1.092;2023-04-01T12:20:36;7.32;;;1.05;;
9783;SDS011;4931;44.874;-1.092;2023-04-01T12:26:19;7.32;;;1.20;;
9783;SDS011;4931;44.874;-1.092;2023-04-01T12:34:38;8.35;;;1.38;;
9783;SDS011;4931;44.874;-1.092;2023-04-01T12:45:31;15.10;;;2.10;;
9783;SDS011;4931;44.874;-1.092;2023-04-01T12:48:20;15.75;;;2.30;;
9783;SDS011;4931;44.874;-1.092;2023-04-01T12:50:53;13.77;;;2.05;;
9783;SDS011;4931;44.874;-1.092;2023-04-01T13:02:02;15.75;;;4.03;;
9783;SDS011;4931;44.874;-1.092;2023-04-01T13:07:24;17.50;;;3.15;;
9783;SDS011;4931;44.874;-1.092;2023-04-01T13:24:03;16.45;;;3.15;;
9783;SDS011;4931;44.874;-1.092;2023-04-01T13:29:40;16.00;;;2.90;;
9783;SDS011;4931;44.874;-1.092;2023-04-01T13:35:20;9.65;;;1.85;;
9783;SDS011;4931;44.874;-1.092;2023-04-01T13:37:58;9.88;;;1.70;;
9783;SDS011;4931;44.874;-1.092;2023-04-01T13:40:28;9.43;;;1.55;;
9783;SDS011;4931;44.874;-1.092;2023-04-01T13:43:47;10.10;;;1.60;;
9783;SDS011;4931;44.874;-1.092;2023-04-01T13:48:36;12.27;;;1.83;;
9783;SDS011;4931;44.874;-1.092;2023-04-01T14:02:33;13.82;;;2.05;;
9783;SDS011;4931;44.874;-1.092;2023-04-01T14:05:28;14.10;;;1.65;;
9783;SDS011;4931;44.874;-1.092;2023-04-01T14:25:33;16.05;;;2.47;;
9783;SDS011;4931;44.874;-1.092;2023-04-01T14:28:31;16.88;;;2.47;;
9783;SDS011;4931;44.874;-1.092;2023-04-01T14:31:17;18.15;;;2.88;;
9783;SDS011;4931;44.874;-1.092;2023-04-01T14:47:59;20.90;;;3.20;;
9783;SDS011;4931;44.874;-1.092;2023-04-01T14:50:29;17.95;;;3.03;;
9783;SDS011;4931;44.874;-1.092;2023-04-01T14:53:11;17.13;;;2.60;;
9783;SDS011;4931;44.874;-1.092;2023-04-01T14:55:52;12.00;;;2.00;;
9783;SDS011;4931;44.874;-1.092;2023-04-01T14:58:21;13.13;;;1.65;;
9783;SDS011;4931;44.874;-1.092;2023-04-01T15:14:48;16.00;;;2.57;;
9783;SDS011;4931;44.874;-1.092;2023-04-01T15:20:13;16.52;;;2.53;;
9783;SDS011;4931;44.874;-1.092;2023-04-01T15:30:48;15.00;;;2.10;;
9783;SDS011;4931;44.874;-1.092;2023-04-01T15:33:26;15.90;;;2.20;;
9783;SDS011;4931;44.874;-1.092;2023-04-01T15:36:00;21.65;;;2.38;;
9783;SDS011;4931;44.874;-1.092;2023-04-01T15:38:30;27.05;;;5.80;;
9783;SDS011;4931;44.874;-1.092;2023-04-01T15:43:41;26.80;;;2.92;;
9783;SDS011;4931;44.874;-1.092;2023-04-01T15:48:41;18.13;;;2.53;;
9783;SDS011;4931;44.874;-1.092;2023-04-01T15:51:11;20.50;;;3.03;;
9783;SDS011;4931;44.874;-1.092;2023-04-01T15:59:44;21.45;;;2.78;;
9783;SDS011;4931;44.874;-1.092;2023-04-01T16:02:22;17.15;;;2.63;;
9783;SDS011;4931;44.874;-1.092;2023-04-01T16:15:47;18.52;;;2.65;;
9783;SDS011;4931;44.874;-1.092;2023-04-01T16:23:58;22.73;;;2.75;;
9783;SDS011;4931;44.874;-1.092;2023-04-01T16:34:36;19.73;;;2.83;;
9783;SDS011;4931;44.874;-1.092;2023-04-01T16:37:10;20.70;;;2.45;;
9783;SDS011;4931;44.874;-1.092;2023-04-01T16:39:49;20.75;;;3.15;;
9783;SDS011;4931;44.874;-1.092;2023-04-01T16:45:24;15.55;;;3.10;;
9783;SDS011;4931;44.874;-1.092;2023-04-01T16:48:00;19.05;;;2.30;;
9783;SDS011;4931;44.874;-1.092;2023-04-01T16:50:42;14.38;;;2.58;;
9783;SDS011;4931;44.874;-1.092;2023-04-01T17:01:00;16.42;;;2.28;;
9783;SDS011;4931;44.874;-1.092;2023-04-01T17:03:38;15.85;;;2.35;;
9783;SDS011;4931;44.874;-1.092;2023-04-01T17:23:30;19.70;;;2.90;;
9783;SDS011;4931;44.874;-1.092;2023-04-01T17:31:52;22.15;;;3.05;;
9783;SDS011;4931;44.874;-1.092;2023-04-01T17:51:28;21.75;;;2.65;;
9783;SDS011;4931;44.874;-1.092;2023-04-01T17:56:12;17.33;;;3.40;;
9783;SDS011;4931;44.874;-1.092;2023-04-01T18:17:41;23.38;;;2.50;;
9783;SDS011;4931;44.874;-1.092;2023-04-01T18:30:37;15.23;;;2.05;;
9783;SDS011;4931;44.874;-1.092;2023-04-01T18:38:29;18.75;;;1.75;;
9783;SDS011;4931;44.874;-1.092;2023-04-01T18:41:15;12.32;;;1.58;;
9783;SDS011;4931;44.874;-1.092;2023-04-01T18:46:39;14.37;;;2.00;;
9783;SDS011;4931;44.874;-1.092;2023-04-01T18:49:21;10.60;;;2.30;;
9783;SDS011;4931;44.874;-1.092;2023-04-01T18:51:51;8.90;;;1.73;;
9783;SDS011;4931;44.874;-1.092;2023-04-01T18:57:26;14.15;;;2.20;;
9783;SDS011;4931;44.874;-1.092;2023-04-01T19:00:08;18.00;;;2.35;;
9783;SDS011;4931;44.874;-1.092;2023-04-01T19:02:51;19.65;;;2.28;;
9783;SDS011;4931;44.874;-1.092;2023-04-01T19:05:35;15.93;;;2.67;;
9783;SDS011;4931;44.874;-1.092;2023-04-01T19:10:53;20.00;;;2.38;;
9783;SDS011;4931;44.874;-1.092;2023-04-01T19:13:47;22.70;;;2.60;;
9783;SDS011;4931;44.874;-1.092;2023-04-01T19:19:02;25.48;;;3.25;;
9783;SDS011;4931;44.874;-1.092;2023-04-01T19:21:37;17.10;;;2.70;;
9783;SDS011;4931;44.874;-1.092;2023-04-01T19:34:39;15.90;;;2.08;;
9783;SDS011;4931;44.874;-1.092;2023-04-01T19:40:22;17.75;;;1.98;;
9783;SDS011;4931;44.874;-1.092;2023-04-01T19:43:03;15.65;;;1.40;;
9783;SDS011;4931;44.874;-1.092;2023-04-01T19:51:07;17.42;;;2.05;;
9783;SDS011;4931;44.874;-1.092;2023-04-01T19:56:23;16.13;;;2.10;;
9783;SDS011;4931;44.874;-1.092;2023-04-01T19:58:58;14.82;;;2.25;;
9783;SDS011;4931;44.874;-1.092;2023-04-01T20:01:44;19.20;;;2.17;;
9783;SDS011;4931;44.874;-1.092;2023-04-01T20:04:37;19.40;;;3.15;;
9783;SDS011;4931;44.874;-1.092;2023-04-01T20:07:23;21.73;;;2.90;;
9783;SDS011;4931;44.874;-1.092;2023-04-01T20:10:12;19.40;;;2.80;;
9783;SDS011;4931;44.874;-1.092;2023-04-01T20:15:34;29.13;;;2.88;;
9783;SDS011;4931;44.874;-1.092;2023-04-01T20:18:05;19.27;;;2.90;;
9783;SDS011;4931;44.874;-1.092;2023-04-01T20:20:39;26.40;;;3.30;;
9783;SDS011;4931;44.874;-1.092;2023-04-01T20:23:11;13.57;;;2.58;;
9783;SDS011;4931;44.874;-1.092;2023-04-01T20:25:51;25.30;;;3.28;;
9783;SDS011;4931;44.874;-1.092;2023-04-01T20:28:25;18.08;;;3.30;;
9783;SDS011;4931;44.874;-1.092;2023-04-01T20:44:19;29.48;;;3.95;;
9783;SDS011;4931;44.874;-1.092;2023-04-01T20:50:24;17.63;;;2.55;;
9783;SDS011;4931;44.874;-1.092;2023-04-01T20:58:03;26.35;;;2.90;;
9783;SDS011;4931;44.874;-1.092;2023-04-01T21:03:53;27.95;;;3.08;;
9783;SDS011;4931;44.874;-1.092;2023-04-01T21:06:39;30.55;;;3.58;;
9783;SDS011;4931;44.874;-1.092;2023-04-01T21:22:44;33.38;;;4.22;;
9783;SDS011;4931;44.874;-1.092;2023-04-01T21:25:30;27.30;;;3.67;;
9783;SDS011;4931;44.874;-1.092;2023-04-01T21:29:05;33.58;;;3.45;;
9783;SDS011;4931;44.874;-1.092;2023-04-01T21:31:31;36.40;;;4.53;;
9783;SDS011;4931;44.874;-1.092;2023-04-01T21:34:28;23.88;;;4.63;;
9783;SDS011;4931;44.874;-1.092;2023-04-01T22:06:56;24.90;;;2.75;;
9783;SDS011;4931;44.874;-1.092;2023-04-01T22:09:36;31.67;;;3.38;;
9783;SDS011;4931;44.874;-1.092;2023-04-01T22:15:32;23.45;;;3.03;;
9783;SDS011;4931;44.874;-1.092;2023-04-01T22:18:29;26.52;;;3.22;;
9783;SDS011;4931;44.874;-1.092;2023-04-01T22:21:05;24.30;;;3.05;;
9783;SDS011;4931;44.874;-1.092;2023-04-01T22:23:46;23.35;;;3.15;;
9783;SDS011;4931;44.874;-1.092;2023-04-01T22:26:32;23.10;;;3.17;;
9783;SDS011;4931;44.874;-1.092;2023-04-01T22:29:11;23.98;;;3.50;;
9783;SDS011;4931;44.874;-1.092;2023-04-01T22:31:44;31.38;;;3.13;;
9783;SDS011;4931;44.874;-1.092;2023-04-01T22:36:58;27.20;;;3.17;;
9783;SDS011;4931;44.874;-1.092;2023-04-01T22:42:11;25.85;;;2.88;;
9783;SDS011;4931;44.874;-1.092;2023-04-01T22:56:09;34.97;;;4.80;;
9783;SDS011;4931;44.874;-1.092;2023-04-01T22:58:46;27.08;;;3.13;;
9783;SDS011;4931;44.874;-1.092;2023-04-01T23:01:21;28.23;;;2.75;;
9783;SDS011;4931;44.874;-1.092;2023-04-01T23:03:52;22.27;;;3.20;;
9783;SDS011;4931;44.874;-1.092;2023-04-01T23:06:22;20.50;;;3.05;;
9783;SDS011;4931;44.874;-1.092;2023-04-01T23:09:02;30.20;;;3.25;;
9783;SDS011;4931;44.874;-1.092;2023-04-01T23:12:00;25.25;;;3.20;;
9783;SDS011;4931;44.874;-1.092;2023-04-01T23:29:56;27.30;;;3.65;;
9783;SDS011;4931;44.874;-1.092;2023-04-01T23:32:22;23.42;;;2.63;;
9783;SDS011;4931;44.874;-1.092;2023-04-01T23:34:54;30.60;;;3.72;;
9783;SDS011;4931;44.874;-1.092;2023-04-01T23:37:23;28.73;;;3.00;;
9783;SDS011;4931;44.874;-1.092;2023-04-01T23:39:50;31.90;;;4.07;;
9783;SDS011;4931;44.874;-1.092;2023-04-01T23:45:05;28.73;;;3.00;;
9783;SDS011;4931;44.874;-1.092;2023-04-01T23:47:39;28.17;;;3.40;;
9783;SDS011;4931;44.874;-1.092;2023-04-01T23:52:43;20.50;;;3.03;;
9783;SDS011;4931;44.874;-1.092;2023-04-01T23:55:18;20.52;;;2.85;;
9783;SDS011;4931;44.874;-1.092;2023-04-01T23:58:01;92.60;;;36.00;;
